sensor_id;sensor_type;location;lat;lon;timestamp;pressure;altitude;pressure_sealevel;temperature;humidity
46448;BME280;32145;50.390;30.778;2023-06-14T00:02:41;99947.56;;;10.91;74.88
46448;BME280;32145;50.390;30.778;2023-06-14T00:05:36;99958.63;;;10.90;74.26
46448;BME280;32145;50.390;30.778;2023-06-14T00:08:31;99946.38;;;10.87;74.76
46448;BME280;32145;50.390;30.778;2023-06-14T00:11:25;99945.06;;;10.90;74.94
46448;BME280;32145;50.390;30.778;2023-06-14T00:14:19;99950.50;;;10.90;75.13
46448;BME280;32145;50.390;30.778;2023-06-14T00:17:13;99959.47;;;10.90;74.52
46448;BME280;32145;50.390;30.778;2023-06-14T00:20:09;99957.81;;;10.89;74.21
46448;BME280;32145;50.390;30.778;2023-06-14T00:23:05;99946.38;;;10.87;74.24
46448;BME280;32145;50.390;30.778;2023-06-14T00:25:59;99949.53;;;10.84;74.84
46448;BME280;32145;50.390;30.778;2023-06-14T00:28:54;99949.53;;;10.84;74.64
46448;BME280;32145;50.390;30.778;2023-06-14T00:31:48;99946.81;;;10.84;74.55
46448;BME280;32145;50.390;30.778;2023-06-14T00:34:42;99944.84;;;10.79;75.06
46448;BME280;32145;50.390;30.778;2023-06-14T00:37:36;99943.63;;;10.75;74.81
46448;BME280;32145;50.390;30.778;2023-06-14T00:40:34;99948.25;;;10.75;75.24
46448;BME280;32145;50.390;30.778;2023-06-14T00:43:30;99941.16;;;10.74;74.81
46448;BME280;32145;50.390;30.778;2023-06-14T00:46:27;99942.44;;;10.71;74.86
46448;BME280;32145;50.390;30.778;2023-06-14T00:49:23;99943.97;;;10.67;75.29
46448;BME280;32145;50.390;30.778;2023-06-14T00:52:20;99945.88;;;10.66;74.70
46448;BME280;32145;50.390;30.778;2023-06-14T00:55:16;99949.66;;;10.65;74.80
46448;BME280;32145;50.390;30.778;2023-06-14T00:58:14;99956.34;;;10.63;74.84
46448;BME280;32145;50.390;30.778;2023-06-14T01:01:11;99949.94;;;10.57;75.23
46448;BME280;32145;50.390;30.778;2023-06-14T01:04:07;99954.78;;;10.55;75.66
46448;BME280;32145;50.390;30.778;2023-06-14T01:07:07;99958.09;;;10.57;75.47
46448;BME280;32145;50.390;30.778;2023-06-14T01:10:16;99957.63;;;10.60;75.19
46448;BME280;32145;50.390;30.778;2023-06-14T01:13:20;99960.56;;;10.59;75.59
46448;BME280;32145;50.390;30.778;2023-06-14T01:16:17;99961.28;;;10.54;75.76
46448;BME280;32145;50.390;30.778;2023-06-14T01:19:15;99960.66;;;10.52;75.75
46448;BME280;32145;50.390;30.778;2023-06-14T01:22:11;99956.53;;;10.49;75.20
46448;BME280;32145;50.390;30.778;2023-06-14T01:25:09;99951.97;;;10.50;75.25
46448;BME280;32145;50.390;30.778;2023-06-14T01:28:06;99949.47;;;10.48;75.50
46448;BME280;32145;50.390;30.778;2023-06-14T01:31:03;99948.63;;;10.48;75.48
46448;BME280;32145;50.390;30.778;2023-06-14T01:34:00;99942.38;;;10.47;75.25
46448;BME280;32145;50.390;30.778;2023-06-14T01:36:56;99943.50;;;10.39;75.43
46448;BME280;32145;50.390;30.778;2023-06-14T01:39:53;99947.53;;;10.37;75.46
46448;BME280;32145;50.390;30.778;2023-06-14T01:42:51;99937.47;;;10.37;75.55
46448;BME280;32145;50.390;30.778;2023-06-14T01:45:48;99938.56;;;10.36;75.95
46448;BME280;32145;50.390;30.778;2023-06-14T01:48:46;99933.59;;;10.33;75.65
46448;BME280;32145;50.390;30.778;2023-06-14T01:51:42;99935.03;;;10.36;75.92
46448;BME280;32145;50.390;30.778;2023-06-14T01:54:38;99932.69;;;10.39;76.10
46448;BME280;32145;50.390;30.778;2023-06-14T01:57:34;99927.84;;;10.41;76.12
46448;BME280;32145;50.390;30.778;2023-06-14T02:00:32;99926.56;;;10.44;76.02
46448;BME280;32145;50.390;30.778;2023-06-14T02:03:28;99919.88;;;10.47;75.63
46448;BME280;32145;50.390;30.778;2023-06-14T02:06:26;99929.22;;;10.51;75.20
46448;BME280;32145;50.390;30.778;2023-06-14T02:09:23;99935.81;;;10.55;75.66
46448;BME280;32145;50.390;30.778;2023-06-14T02:12:19;99934.75;;;10.56;75.26
46448;BME280;32145;50.390;30.778;2023-06-14T02:15:16;99927.69;;;10.55;75.40
46448;BME280;32145;50.390;30.778;2023-06-14T02:18:13;99938.88;;;10.59;75.70
46448;BME280;32145;50.390;30.778;2023-06-14T02:21:07;99939.25;;;10.62;75.62
46448;BME280;32145;50.390;30.778;2023-06-14T02:24:02;99943.72;;;10.68;75.43
46448;BME280;32145;50.390;30.778;2023-06-14T02:26:58;99936.31;;;10.76;75.11
46448;BME280;32145;50.390;30.778;2023-06-14T02:29:52;99934.78;;;10.80;75.09
46448;BME280;32145;50.390;30.778;2023-06-14T02:32:46;99938.22;;;10.87;75.54
46448;BME280;32145;50.390;30.778;2023-06-14T02:35:42;99937.03;;;10.95;75.07
46448;BME280;32145;50.390;30.778;2023-06-14T02:38:38;99941.19;;;10.98;75.47
46448;BME280;32145;50.390;30.778;2023-06-14T02:41:35;99947.91;;;11.07;75.55
46448;BME280;32145;50.390;30.778;2023-06-14T02:44:31;99941.56;;;11.13;75.13
46448;BME280;32145;50.390;30.778;2023-06-14T02:47:27;99943.31;;;11.19;74.50
46448;BME280;32145;50.390;30.778;2023-06-14T02:50:24;99960.78;;;11.24;74.95
46448;BME280;32145;50.390;30.778;2023-06-14T02:53:19;99954.75;;;11.33;75.14
46448;BME280;32145;50.390;30.778;2023-06-14T02:56:14;99955.81;;;11.44;74.97
46448;BME280;32145;50.390;30.778;2023-06-14T02:59:08;99958.16;;;11.53;74.85
46448;BME280;32145;50.390;30.778;2023-06-14T03:02:02;99962.88;;;11.69;75.25
46448;BME280;32145;50.390;30.778;2023-06-14T03:04:58;99954.34;;;11.78;75.21
46448;BME280;32145;50.390;30.778;2023-06-14T03:07:55;99959.97;;;11.88;75.20
46448;BME280;32145;50.390;30.778;2023-06-14T03:10:53;99964.56;;;11.99;75.31
46448;BME280;32145;50.390;30.778;2023-06-14T03:13:49;99969.78;;;12.13;75.34
46448;BME280;32145;50.390;30.778;2023-06-14T03:16:45;99965.59;;;12.22;75.19
46448;BME280;32145;50.390;30.778;2023-06-14T03:19:42;99972.41;;;12.37;75.34
46448;BME280;32145;50.390;30.778;2023-06-14T03:22:38;99978.03;;;12.65;75.63
46448;BME280;32145;50.390;30.778;2023-06-14T03:25:34;99977.34;;;13.77;75.68
46448;BME280;32145;50.390;30.778;2023-06-14T03:28:32;99985.81;;;15.14;72.69
46448;BME280;32145;50.390;30.778;2023-06-14T03:31:29;99977.72;;;16.26;69.79
46448;BME280;32145;50.390;30.778;2023-06-14T03:34:25;99983.00;;;17.21;67.41
46448;BME280;32145;50.390;30.778;2023-06-14T03:37:21;99987.78;;;17.82;65.09
46448;BME280;32145;50.390;30.778;2023-06-14T03:40:18;99981.34;;;18.23;63.40
46448;BME280;32145;50.390;30.778;2023-06-14T03:43:15;99980.97;;;18.40;62.69
46448;BME280;32145;50.390;30.778;2023-06-14T03:46:13;99988.50;;;18.64;61.57
46448;BME280;32145;50.390;30.778;2023-06-14T03:49:09;99979.13;;;18.70;61.07
46448;BME280;32145;50.390;30.778;2023-06-14T03:52:06;99983.72;;;18.80;60.29
46448;BME280;32145;50.390;30.778;2023-06-14T03:55:00;99978.03;;;18.71;59.62
46448;BME280;32145;50.390;30.778;2023-06-14T03:57:54;99969.72;;;18.36;59.49
46448;BME280;32145;50.390;30.778;2023-06-14T04:00:49;99972.13;;;17.93;60.14
46448;BME280;32145;50.390;30.778;2023-06-14T04:03:44;99976.91;;;17.61;61.21
46448;BME280;32145;50.390;30.778;2023-06-14T04:06:41;99973.94;;;17.31;61.57
46448;BME280;32145;50.390;30.778;2023-06-14T04:09:37;99967.66;;;16.99;62.20
46448;BME280;32145;50.390;30.778;2023-06-14T04:12:34;99971.75;;;16.66;62.75
46448;BME280;32145;50.390;30.778;2023-06-14T04:15:30;99963.50;;;16.45;63.37
46448;BME280;32145;50.390;30.778;2023-06-14T04:18:26;99971.72;;;16.40;63.74
46448;BME280;32145;50.390;30.778;2023-06-14T04:21:24;99966.50;;;16.38;64.08
46448;BME280;32145;50.390;30.778;2023-06-14T04:24:20;99962.41;;;16.35;64.00
46448;BME280;32145;50.390;30.778;2023-06-14T04:27:17;99963.50;;;16.34;63.96
46448;BME280;32145;50.390;30.778;2023-06-14T04:30:13;99964.59;;;16.39;64.35
46448;BME280;32145;50.390;30.778;2023-06-14T04:33:09;99966.50;;;16.43;64.23
46448;BME280;32145;50.390;30.778;2023-06-14T04:36:06;99964.88;;;16.42;64.19
46448;BME280;32145;50.390;30.778;2023-06-14T04:39:01;99964.34;;;16.45;64.00
46448;BME280;32145;50.390;30.778;2023-06-14T04:41:56;99958.06;;;16.55;64.06
46448;BME280;32145;50.390;30.778;2023-06-14T04:44:51;99958.31;;;16.59;64.24
46448;BME280;32145;50.390;30.778;2023-06-14T04:47:45;99956.41;;;16.54;63.98
46448;BME280;32145;50.390;30.778;2023-06-14T04:50:39;99952.56;;;16.45;64.39
46448;BME280;32145;50.390;30.778;2023-06-14T04:53:34;99959.66;;;16.35;64.41
46448;BME280;32145;50.390;30.778;2023-06-14T04:56:31;99954.19;;;16.30;64.25
46448;BME280;32145;50.390;30.778;2023-06-14T04:59:28;99953.66;;;16.39;64.37
46448;BME280;32145;50.390;30.778;2023-06-14T05:02:25;99962.44;;;16.51;63.92
46448;BME280;32145;50.390;30.778;2023-06-14T05:05:21;99956.94;;;16.61;63.76
46448;BME280;32145;50.390;30.778;2023-06-14T05:08:17;99956.72;;;16.68;63.38
46448;BME280;32145;50.390;30.778;2023-06-14T05:11:12;99957.25;;;16.70;62.53
46448;BME280;32145;50.390;30.778;2023-06-14T05:14:07;99958.63;;;16.88;62.74
46448;BME280;32145;50.390;30.778;2023-06-14T05:17:02;99966.88;;;17.09;62.51
46448;BME280;32145;50.390;30.778;2023-06-14T05:19:56;99971.22;;;17.26;62.04
46448;BME280;32145;50.390;30.778;2023-06-14T05:22:52;99964.34;;;17.39;61.70
46448;BME280;32145;50.390;30.778;2023-06-14T05:25:49;99970.63;;;17.50;61.62
46448;BME280;32145;50.390;30.778;2023-06-14T05:28:45;99958.00;;;17.59;60.84
46448;BME280;32145;50.390;30.778;2023-06-14T05:31:43;99960.72;;;17.70;60.73
46448;BME280;32145;50.390;30.778;2023-06-14T05:34:40;99976.03;;;17.81;60.58
46448;BME280;32145;50.390;30.778;2023-06-14T05:37:36;99971.56;;;17.96;60.63
46448;BME280;32145;50.390;30.778;2023-06-14T05:40:32;99964.41;;;18.05;59.16
46448;BME280;32145;50.390;30.778;2023-06-14T05:43:29;99979.47;;;18.08;59.59
46448;BME280;32145;50.390;30.778;2023-06-14T05:46:26;99984.69;;;18.14;59.70
46448;BME280;32145;50.390;30.778;2023-06-14T05:49:23;99971.50;;;18.16;59.65
46448;BME280;32145;50.390;30.778;2023-06-14T05:52:19;99968.38;;;18.34;59.89
46448;BME280;32145;50.390;30.778;2023-06-14T05:55:16;99974.03;;;18.53;59.36
46448;BME280;32145;50.390;30.778;2023-06-14T05:58:12;99974.53;;;18.60;59.15
46448;BME280;32145;50.390;30.778;2023-06-14T06:01:09;99973.63;;;18.70;58.71
46448;BME280;32145;50.390;30.778;2023-06-14T06:04:03;99969.25;;;18.69;58.81
46448;BME280;32145;50.390;30.778;2023-06-14T06:06:59;99968.13;;;18.70;58.38
46448;BME280;32145;50.390;30.778;2023-06-14T06:09:53;99966.22;;;18.71;58.40
46448;BME280;32145;50.390;30.778;2023-06-14T06:12:48;99965.88;;;18.77;58.39
46448;BME280;32145;50.390;30.778;2023-06-14T06:15:42;99953.22;;;18.81;58.12
46448;BME280;32145;50.390;30.778;2023-06-14T06:18:37;99964.50;;;18.80;57.82
46448;BME280;32145;50.390;30.778;2023-06-14T06:21:33;99958.47;;;18.78;57.61
46448;BME280;32145;50.390;30.778;2023-06-14T06:24:31;99960.31;;;18.88;57.68
46448;BME280;32145;50.390;30.778;2023-06-14T06:27:25;99962.41;;;19.01;57.85
46448;BME280;32145;50.390;30.778;2023-06-14T06:30:20;99969.75;;;19.11;57.57
46448;BME280;32145;50.390;30.778;2023-06-14T06:33:14;99959.91;;;19.05;57.31
46448;BME280;32145;50.390;30.778;2023-06-14T06:36:09;99960.44;;;19.07;57.51
46448;BME280;32145;50.390;30.778;2023-06-14T06:39:06;99962.00;;;19.18;57.81
46448;BME280;32145;50.390;30.778;2023-06-14T06:42:04;99956.25;;;19.44;57.74
46448;BME280;32145;50.390;30.778;2023-06-14T06:44:58;99952.50;;;19.60;57.56
46448;BME280;32145;50.390;30.778;2023-06-14T06:47:53;99952.69;;;19.68;57.49
46448;BME280;32145;50.390;30.778;2023-06-14T06:50:41;99955.94;;;19.70;57.37
46448;BME280;32145;50.390;30.778;2023-06-14T06:53:37;99953.16;;;19.76;57.21
46448;BME280;32145;50.390;30.778;2023-06-14T06:56:28;99953.59;;;19.83;56.90
46448;BME280;32145;50.390;30.778;2023-06-14T06:59:24;99950.81;;;19.88;57.09
46448;BME280;32145;50.390;30.778;2023-06-14T07:02:18;99951.84;;;19.92;56.54
46448;BME280;32145;50.390;30.778;2023-06-14T07:05:15;99952.56;;;20.03;56.60
46448;BME280;32145;50.390;30.778;2023-06-14T07:08:11;99948.78;;;20.18;55.24
46448;BME280;32145;50.390;30.778;2023-06-14T07:11:05;99949.22;;;20.26;55.22
46448;BME280;32145;50.390;30.778;2023-06-14T07:13:59;99950.72;;;20.37;55.22
46448;BME280;32145;50.390;30.778;2023-06-14T07:16:57;99954.41;;;20.46;54.84
46448;BME280;32145;50.390;30.778;2023-06-14T07:19:45;99951.00;;;20.55;54.51
46448;BME280;32145;50.390;30.778;2023-06-14T07:22:42;99950.00;;;20.65;54.14
46448;BME280;32145;50.390;30.778;2023-06-14T07:25:36;99957.53;;;20.59;54.00
46448;BME280;32145;50.390;30.778;2023-06-14T07:28:31;99944.88;;;20.58;54.83
46448;BME280;32145;50.390;30.778;2023-06-14T07:31:27;99950.31;;;20.63;55.37
46448;BME280;32145;50.390;30.778;2023-06-14T07:34:25;99956.69;;;20.78;55.00
46448;BME280;32145;50.390;30.778;2023-06-14T07:37:21;99958.66;;;20.77;54.48
46448;BME280;32145;50.390;30.778;2023-06-14T07:40:17;99955.16;;;20.71;53.84
46448;BME280;32145;50.390;30.778;2023-06-14T07:43:13;99959.09;;;20.65;54.34
46448;BME280;32145;50.390;30.778;2023-06-14T07:46:10;99954.84;;;20.73;55.18
46448;BME280;32145;50.390;30.778;2023-06-14T07:49:06;99954.47;;;20.80;54.86
46448;BME280;32145;50.390;30.778;2023-06-14T07:52:05;99951.25;;;20.92;54.99
46448;BME280;32145;50.390;30.778;2023-06-14T07:54:59;99953.31;;;21.00;54.93
46448;BME280;32145;50.390;30.778;2023-06-14T07:57:53;99949.78;;;21.14;54.96
46448;BME280;32145;50.390;30.778;2023-06-14T08:00:48;99950.00;;;21.17;53.88
46448;BME280;32145;50.390;30.778;2023-06-14T08:03:42;99949.56;;;21.10;54.33
46448;BME280;32145;50.390;30.778;2023-06-14T08:06:37;99960.00;;;21.13;54.79
46448;BME280;32145;50.390;30.778;2023-06-14T08:09:32;99962.56;;;21.23;54.84
46448;BME280;32145;50.390;30.778;2023-06-14T08:12:27;99958.72;;;21.38;54.63
46448;BME280;32145;50.390;30.778;2023-06-14T08:15:21;99955.97;;;21.53;54.12
46448;BME280;32145;50.390;30.778;2023-06-14T08:18:15;99954.53;;;21.55;53.42
46448;BME280;32145;50.390;30.778;2023-06-14T08:21:10;99947.56;;;21.58;53.63
46448;BME280;32145;50.390;30.778;2023-06-14T08:24:05;99946.38;;;21.64;53.41
46448;BME280;32145;50.390;30.778;2023-06-14T08:27:01;99957.00;;;21.85;53.17
46448;BME280;32145;50.390;30.778;2023-06-14T08:29:55;99956.59;;;21.92;52.55
46448;BME280;32145;50.390;30.778;2023-06-14T08:32:50;99961.19;;;21.96;53.07
46448;BME280;32145;50.390;30.778;2023-06-14T08:35:45;99954.72;;;22.15;52.89
46448;BME280;32145;50.390;30.778;2023-06-14T08:38:41;99948.25;;;22.20;52.12
46448;BME280;32145;50.390;30.778;2023-06-14T08:41:38;99959.00;;;22.21;51.68
46448;BME280;32145;50.390;30.778;2023-06-14T08:44:35;99949.06;;;22.20;51.89
46448;BME280;32145;50.390;30.778;2023-06-14T08:47:29;99953.69;;;22.25;52.00
46448;BME280;32145;50.390;30.778;2023-06-14T08:50:25;99957.09;;;22.45;52.12
46448;BME280;32145;50.390;30.778;2023-06-14T08:53:20;99956.03;;;22.55;50.65
46448;BME280;32145;50.390;30.778;2023-06-14T08:56:15;99946.66;;;22.56;51.24
46448;BME280;32145;50.390;30.778;2023-06-14T08:59:09;99944.88;;;22.60;51.65
46448;BME280;32145;50.390;30.778;2023-06-14T09:02:06;99943.97;;;22.64;51.57
46448;BME280;32145;50.390;30.778;2023-06-14T09:05:00;99942.38;;;22.72;50.81
46448;BME280;32145;50.390;30.778;2023-06-14T09:07:55;99937.72;;;22.82;51.36
46448;BME280;32145;50.390;30.778;2023-06-14T09:10:49;99940.53;;;22.90;50.40
46448;BME280;32145;50.390;30.778;2023-06-14T09:13:44;99932.09;;;22.96;50.56
46448;BME280;32145;50.390;30.778;2023-06-14T09:16:39;99940.00;;;23.11;50.02
46448;BME280;32145;50.390;30.778;2023-06-14T09:19:35;99932.13;;;23.27;49.71
46448;BME280;32145;50.390;30.778;2023-06-14T09:22:25;99936.59;;;23.37;50.18
46448;BME280;32145;50.390;30.778;2023-06-14T09:25:19;99931.22;;;23.41;49.70
46448;BME280;32145;50.390;30.778;2023-06-14T09:28:13;99928.03;;;23.56;49.31
46448;BME280;32145;50.390;30.778;2023-06-14T09:31:08;99917.16;;;23.69;49.26
46448;BME280;32145;50.390;30.778;2023-06-14T09:34:02;99930.00;;;23.65;49.30
46448;BME280;32145;50.390;30.778;2023-06-14T09:36:58;99938.41;;;23.42;49.97
46448;BME280;32145;50.390;30.778;2023-06-14T09:39:52;99925.13;;;23.30;50.25
46448;BME280;32145;50.390;30.778;2023-06-14T09:42:47;99918.72;;;23.12;50.66
46448;BME280;32145;50.390;30.778;2023-06-14T09:45:42;99923.63;;;22.92;51.29
46448;BME280;32145;50.390;30.778;2023-06-14T09:48:37;99916.34;;;22.96;51.52
46448;BME280;32145;50.390;30.778;2023-06-14T09:51:31;99916.56;;;23.00;50.93
46448;BME280;32145;50.390;30.778;2023-06-14T09:54:29;99927.78;;;23.03;50.93
46448;BME280;32145;50.390;30.778;2023-06-14T09:57:28;99919.47;;;23.03;50.95
46448;BME280;32145;50.390;30.778;2023-06-14T10:00:26;99924.31;;;22.98;51.01
46448;BME280;32145;50.390;30.778;2023-06-14T10:03:27;99923.50;;;22.97;51.42
46448;BME280;32145;50.390;30.778;2023-06-14T10:06:25;99920.25;;;22.95;51.03
46448;BME280;32145;50.390;30.778;2023-06-14T10:09:22;99915.09;;;23.02;49.89
46448;BME280;32145;50.390;30.778;2023-06-14T10:12:19;99916.97;;;23.25;50.60
46448;BME280;32145;50.390;30.778;2023-06-14T10:15:20;99908.19;;;23.54;49.88
46448;BME280;32145;50.390;30.778;2023-06-14T10:18:24;99929.41;;;23.86;49.70
46448;BME280;32145;50.390;30.778;2023-06-14T10:21:28;99922.06;;;23.81;49.07
46448;BME280;32145;50.390;30.778;2023-06-14T10:24:32;99921.53;;;23.61;48.96
46448;BME280;32145;50.390;30.778;2023-06-14T10:27:30;99920.22;;;23.59;49.33
46448;BME280;32145;50.390;30.778;2023-06-14T10:30:25;99919.25;;;23.54;49.45
46448;BME280;32145;50.390;30.778;2023-06-14T10:33:20;99908.19;;;23.54;49.17
46448;BME280;32145;50.390;30.778;2023-06-14T10:36:28;99908.81;;;23.51;48.83
46448;BME280;32145;50.390;30.778;2023-06-14T10:39:22;99914.34;;;23.51;49.05
46448;BME280;32145;50.390;30.778;2023-06-14T10:42:17;99915.50;;;23.59;49.13
46448;BME280;32145;50.390;30.778;2023-06-14T10:45:15;99912.47;;;23.78;48.63
46448;BME280;32145;50.390;30.778;2023-06-14T10:48:29;99910.22;;;23.98;47.70
46448;BME280;32145;50.390;30.778;2023-06-14T10:51:30;99908.91;;;24.04;47.68
46448;BME280;32145;50.390;30.778;2023-06-14T10:54:32;99910.91;;;24.13;47.41
46448;BME280;32145;50.390;30.778;2023-06-14T10:57:26;99919.06;;;24.18;47.63
46448;BME280;32145;50.390;30.778;2023-06-14T11:00:23;99912.72;;;24.26;47.47
46448;BME280;32145;50.390;30.778;2023-06-14T11:03:44;99916.94;;;24.32;47.37
46448;BME280;32145;50.390;30.778;2023-06-14T11:06:46;99919.03;;;24.27;46.73
46448;BME280;32145;50.390;30.778;2023-06-14T11:10:01;99919.38;;;24.43;47.09
46448;BME280;32145;50.390;30.778;2023-06-14T11:12:59;99907.28;;;24.56;46.74
46448;BME280;32145;50.390;30.778;2023-06-14T11:15:54;99906.91;;;24.84;46.36
46448;BME280;32145;50.390;30.778;2023-06-14T11:18:49;99906.47;;;24.91;45.95
46448;BME280;32145;50.390;30.778;2023-06-14T11:21:47;99897.63;;;24.98;45.21
46448;BME280;32145;50.390;30.778;2023-06-14T11:24:44;99908.72;;;24.98;45.54
46448;BME280;32145;50.390;30.778;2023-06-14T11:27:41;99913.50;;;24.89;44.72
46448;BME280;32145;50.390;30.778;2023-06-14T11:30:37;99901.09;;;24.68;44.21
46448;BME280;32145;50.390;30.778;2023-06-14T11:33:35;99909.91;;;24.62;44.03
46448;BME280;32145;50.390;30.778;2023-06-14T11:36:33;99906.19;;;24.49;44.49
46448;BME280;32145;50.390;30.778;2023-06-14T11:39:29;99903.41;;;24.40;44.91
46448;BME280;32145;50.390;30.778;2023-06-14T11:42:24;99907.97;;;24.36;45.71
46448;BME280;32145;50.390;30.778;2023-06-14T11:45:20;99916.94;;;24.41;45.24
46448;BME280;32145;50.390;30.778;2023-06-14T11:48:14;99909.44;;;24.42;45.75
46448;BME280;32145;50.390;30.778;2023-06-14T11:51:10;99912.53;;;24.49;45.53
46448;BME280;32145;50.390;30.778;2023-06-14T11:54:07;99914.31;;;24.54;45.65
46448;BME280;32145;50.390;30.778;2023-06-14T11:57:04;99915.13;;;24.54;45.44
46448;BME280;32145;50.390;30.778;2023-06-14T12:00:03;99917.72;;;24.59;45.12
46448;BME280;32145;50.390;30.778;2023-06-14T12:02:59;99906.50;;;24.65;44.98
46448;BME280;32145;50.390;30.778;2023-06-14T12:06:04;99919.34;;;24.78;45.17
46448;BME280;32145;50.390;30.778;2023-06-14T12:09:03;99912.19;;;24.77;44.97
46448;BME280;32145;50.390;30.778;2023-06-14T12:12:00;99911.66;;;24.84;45.53
46448;BME280;32145;50.390;30.778;2023-06-14T12:14:56;99909.38;;;24.95;45.01
46448;BME280;32145;50.390;30.778;2023-06-14T12:17:53;99912.38;;;25.20;44.65
46448;BME280;32145;50.390;30.778;2023-06-14T12:20:50;99913.81;;;25.35;44.23
46448;BME280;32145;50.390;30.778;2023-06-14T12:23:48;99901.78;;;25.61;43.95
46448;BME280;32145;50.390;30.778;2023-06-14T12:26:45;99905.53;;;25.86;42.96
46448;BME280;32145;50.390;30.778;2023-06-14T12:29:42;99904.34;;;26.18;42.95
46448;BME280;32145;50.390;30.778;2023-06-14T12:32:36;99908.38;;;26.29;42.11
46448;BME280;32145;50.390;30.778;2023-06-14T12:35:30;99897.84;;;26.13;41.21
46448;BME280;32145;50.390;30.778;2023-06-14T12:38:26;99904.88;;;25.90;41.24
46448;BME280;32145;50.390;30.778;2023-06-14T12:41:23;99903.44;;;25.53;42.23
46448;BME280;32145;50.390;30.778;2023-06-14T12:44:21;99906.97;;;25.32;42.61
46448;BME280;32145;50.390;30.778;2023-06-14T12:47:17;99901.03;;;25.13;43.15
46448;BME280;32145;50.390;30.778;2023-06-14T12:50:13;99894.09;;;24.89;43.25
46448;BME280;32145;50.390;30.778;2023-06-14T12:53:10;99894.25;;;24.66;43.87
46448;BME280;32145;50.390;30.778;2023-06-14T12:56:06;99891.50;;;24.57;44.44
46448;BME280;32145;50.390;30.778;2023-06-14T12:59:02;99891.00;;;24.64;44.10
46448;BME280;32145;50.390;30.778;2023-06-14T13:02:10;99890.28;;;24.84;43.30
46448;BME280;32145;50.390;30.778;2023-06-14T13:05:07;99885.69;;;25.06;43.61
46448;BME280;32145;50.390;30.778;2023-06-14T13:08:03;99886.66;;;25.10;43.58
46448;BME280;32145;50.390;30.778;2023-06-14T13:10:57;99888.81;;;24.96;43.47
46448;BME280;32145;50.390;30.778;2023-06-14T13:13:52;99881.69;;;24.77;43.97
46448;BME280;32145;50.390;30.778;2023-06-14T13:16:46;99875.84;;;24.70;43.63
46448;BME280;32145;50.390;30.778;2023-06-14T13:19:42;99873.38;;;24.68;43.80
46448;BME280;32145;50.390;30.778;2023-06-14T13:22:36;99873.38;;;24.77;44.15
46448;BME280;32145;50.390;30.778;2023-06-14T13:25:25;99875.00;;;24.78;44.17
46448;BME280;32145;50.390;30.778;2023-06-14T13:28:21;99874.38;;;24.64;44.14
46448;BME280;32145;50.390;30.778;2023-06-14T13:31:18;99874.72;;;24.53;44.66
46448;BME280;32145;50.390;30.778;2023-06-14T13:34:14;99873.06;;;24.52;44.58
46448;BME280;32145;50.390;30.778;2023-06-14T13:37:12;99878.31;;;24.45;44.96
46448;BME280;32145;50.390;30.778;2023-06-14T13:40:09;99871.97;;;24.36;45.00
46448;BME280;32145;50.390;30.778;2023-06-14T13:43:05;99877.50;;;24.53;45.11
46448;BME280;32145;50.390;30.778;2023-06-14T13:46:00;99877.44;;;24.80;43.94
46448;BME280;32145;50.390;30.778;2023-06-14T13:48:54;99872.31;;;25.08;43.36
46448;BME280;32145;50.390;30.778;2023-06-14T13:51:49;99867.31;;;25.32;42.83
46448;BME280;32145;50.390;30.778;2023-06-14T13:54:44;99873.50;;;25.38;42.30
46448;BME280;32145;50.390;30.778;2023-06-14T13:57:40;99865.38;;;25.32;42.29
46448;BME280;32145;50.390;30.778;2023-06-14T14:00:37;99866.16;;;25.33;42.39
46448;BME280;32145;50.390;30.778;2023-06-14T14:03:33;99865.97;;;25.38;42.42
46448;BME280;32145;50.390;30.778;2023-06-14T14:06:30;99869.03;;;25.45;42.13
46448;BME280;32145;50.390;30.778;2023-06-14T14:09:26;99870.13;;;25.23;41.24
46448;BME280;32145;50.390;30.778;2023-06-14T14:12:24;99870.03;;;25.10;42.03
46448;BME280;32145;50.390;30.778;2023-06-14T14:15:20;99869.19;;;25.10;42.29
46448;BME280;32145;50.390;30.778;2023-06-14T14:18:17;99867.53;;;25.18;42.35
46448;BME280;32145;50.390;30.778;2023-06-14T14:21:13;99870.91;;;25.32;42.68
46448;BME280;32145;50.390;30.778;2023-06-14T14:24:09;99866.75;;;25.47;42.06
46448;BME280;32145;50.390;30.778;2023-06-14T14:27:06;99865.56;;;25.57;41.53
46448;BME280;32145;50.390;30.778;2023-06-14T14:30:04;99875.31;;;25.64;41.77
46448;BME280;32145;50.390;30.778;2023-06-14T14:33:00;99871.25;;;25.61;41.71
46448;BME280;32145;50.390;30.778;2023-06-14T14:35:57;99868.38;;;25.48;41.96
46448;BME280;32145;50.390;30.778;2023-06-14T14:38:51;99858.63;;;25.42;42.07
46448;BME280;32145;50.390;30.778;2023-06-14T14:41:45;99864.97;;;25.43;41.90
46448;BME280;32145;50.390;30.778;2023-06-14T14:44:42;99865.19;;;25.29;41.61
46448;BME280;32145;50.390;30.778;2023-06-14T14:47:40;99864.78;;;25.18;42.24
46448;BME280;32145;50.390;30.778;2023-06-14T14:50:34;99859.56;;;25.16;42.53
46448;BME280;32145;50.390;30.778;2023-06-14T14:53:28;99865.00;;;25.04;42.50
46448;BME280;32145;50.390;30.778;2023-06-14T14:56:23;99860.28;;;24.95;42.78
46448;BME280;32145;50.390;30.778;2023-06-14T14:59:17;99855.75;;;24.91;43.40
46448;BME280;32145;50.390;30.778;2023-06-14T15:02:13;99858.38;;;24.78;43.42
46448;BME280;32145;50.390;30.778;2023-06-14T15:05:10;99856.78;;;24.59;44.75
46448;BME280;32145;50.390;30.778;2023-06-14T15:08:06;99857.47;;;24.48;44.88
46448;BME280;32145;50.390;30.778;2023-06-14T15:11:03;99852.91;;;24.34;45.21
46448;BME280;32145;50.390;30.778;2023-06-14T15:13:59;99855.69;;;24.25;45.85
46448;BME280;32145;50.390;30.778;2023-06-14T15:16:57;99853.25;;;24.15;45.46
46448;BME280;32145;50.390;30.778;2023-06-14T15:19:52;99856.66;;;24.12;45.68
46448;BME280;32145;50.390;30.778;2023-06-14T15:22:47;99861.06;;;24.13;46.21